sensor_id;sensor_type;location;lat;lon;timestamp;P1;durP1;ratioP1;P2;durP2;ratioP2
17494;SDS011;8864;51.970;4.614;2022-11-20T00:01:32;4.57;;;2.67;;
17494;SDS011;8864;51.970;4.614;2022-11-20T00:03:59;5.50;;;2.75;;
17494;SDS011;8864;51.970;4.614;2022-11-20T00:06:26;3.08;;;2.25;;
17494;SDS011;8864;51.970;4.614;2022-11-20T00:08:56;5.60;;;2.90;;
17494;SDS011;8864;51.970;4.614;2022-11-20T00:11:25;4.97;;;2.75;;
17494;SDS011;8864;51.970;4.614;2022-11-20T00:13:53;5.43;;;2.70;;
17494;SDS011;8864;51.970;4.614;2022-11-20T00:16:24;4.53;;;2.78;;
17494;SDS011;8864;51.970;4.614;2022-11-20T00:18:51;5.45;;;2.80;;
17494;SDS011;8864;51.970;4.614;2022-11-20T00:21:19;5.03;;;2.90;;
17494;SDS011;8864;51.970;4.614;2022-11-20T00:23:47;4.28;;;2.85;;
17494;SDS011;8864;51.970;4.614;2022-11-20T00:26:17;3.97;;;2.50;;
17494;SDS011;8864;51.970;4.614;2022-11-20T00:28:48;4.72;;;2.60;;
17494;SDS011;8864;51.970;4.614;2022-11-20T00:31:17;4.20;;;2.60;;
17494;SDS011;8864;51.970;4.614;2022-11-20T00:33:44;4.68;;;2.45;;
17494;SDS011;8864;51.970;4.614;2022-11-20T00:36:12;4.18;;;2.80;;
17494;SDS011;8864;51.970;4.614;2022-11-20T00:38:40;4.85;;;2.60;;
17494;SDS011;8864;51.970;4.614;2022-11-20T00:41:08;4.68;;;2.70;;
17494;SDS011;8864;51.970;4.614;2022-11-20T00:43:37;4.53;;;2.70;;
17494;SDS011;8864;51.970;4.614;2022-11-20T00:46:05;5.13;;;2.60;;
17494;SDS011;8864;51.970;4.614;2022-11-20T00:48:34;4.15;;;2.47;;
17494;SDS011;8864;51.970;4.614;2022-11-20T00:51:01;4.68;;;2.60;;
17494;SDS011;8864;51.970;4.614;2022-11-20T00:53:28;6.15;;;2.58;;
17494;SDS011;8864;51.970;4.614;2022-11-20T00:55:55;5.32;;;2.75;;
17494;SDS011;8864;51.970;4.614;2022-11-20T00:58:23;4.35;;;2.60;;
17494;SDS011;8864;51.970;4.614;2022-11-20T01:00:52;4.57;;;2.80;;
17494;SDS011;8864;51.970;4.614;2022-11-20T01:03:19;6.97;;;2.83;;
17494;SDS011;8864;51.970;4.614;2022-11-20T01:05:45;5.45;;;2.80;;
17494;SDS011;8864;51.970;4.614;2022-11-20T01:08:12;4.78;;;3.00;;
17494;SDS011;8864;51.970;4.614;2022-11-20T01:10:39;4.72;;;3.00;;
17494;SDS011;8864;51.970;4.614;2022-11-20T01:13:06;3.88;;;2.65;;
17494;SDS011;8864;51.970;4.614;2022-11-20T01:15:51;4.72;;;2.65;;
17494;SDS011;8864;51.970;4.614;2022-11-20T01:18:18;4.75;;;2.60;;
17494;SDS011;8864;51.970;4.614;2022-11-20T01:20:45;3.78;;;2.40;;
17494;SDS011;8864;51.970;4.614;2022-11-20T01:23:12;3.90;;;2.35;;
17494;SDS011;8864;51.970;4.614;2022-11-20T01:25:38;4.05;;;2.60;;
17494;SDS011;8864;51.970;4.614;2022-11-20T01:28:05;3.92;;;2.38;;
17494;SDS011;8864;51.970;4.614;2022-11-20T01:30:32;4.63;;;2.78;;
17494;SDS011;8864;51.970;4.614;2022-11-20T01:33:00;5.07;;;2.83;;
17494;SDS011;8864;51.970;4.614;2022-11-20T01:35:27;5.50;;;3.00;;
17494;SDS011;8864;51.970;4.614;2022-11-20T01:37:54;5.05;;;2.80;;
17494;SDS011;8864;51.970;4.614;2022-11-20T01:40:21;4.75;;;2.67;;
17494;SDS011;8864;51.970;4.614;2022-11-20T01:42:51;4.55;;;2.70;;
17494;SDS011;8864;51.970;4.614;2022-11-20T01:45:50;4.50;;;2.75;;
17494;SDS011;8864;51.970;4.614;2022-11-20T01:48:26;4.45;;;2.67;;
17494;SDS011;8864;51.970;4.614;2022-11-20T01:50:55;4.03;;;2.53;;
17494;SDS011;8864;51.970;4.614;2022-11-20T01:53:24;5.05;;;2.80;;
17494;SDS011;8864;51.970;4.614;2022-11-20T01:55:55;4.13;;;2.78;;
17494;SDS011;8864;51.970;4.614;2022-11-20T01:58:27;3.63;;;2.38;;
17494;SDS011;8864;51.970;4.614;2022-11-20T02:00:59;5.88;;;2.88;;
17494;SDS011;8864;51.970;4.614;2022-11-20T02:03:27;5.10;;;2.70;;
17494;SDS011;8864;51.970;4.614;2022-11-20T02:05:55;4.68;;;2.42;;
17494;SDS011;8864;51.970;4.614;2022-11-20T02:08:27;5.20;;;2.65;;
17494;SDS011;8864;51.970;4.614;2022-11-20T02:10:54;4.55;;;2.38;;
17494;SDS011;8864;51.970;4.614;2022-11-20T02:13:21;4.78;;;2.70;;
17494;SDS011;8864;51.970;4.614;2022-11-20T02:16:08;4.60;;;2.85;;
17494;SDS011;8864;51.970;4.614;2022-11-20T02:18:38;3.67;;;2.30;;
17494;SDS011;8864;51.970;4.614;2022-11-20T02:21:06;3.67;;;2.50;;
17494;SDS011;8864;51.970;4.614;2022-11-20T02:23:38;3.20;;;2.58;;
17494;SDS011;8864;51.970;4.614;2022-11-20T02:26:07;4.65;;;2.55;;
17494;SDS011;8864;51.970;4.614;2022-11-20T02:28:37;5.32;;;3.00;;
17494;SDS011;8864;51.970;4.614;2022-11-20T02:31:04;5.45;;;2.70;;
17494;SDS011;8864;51.970;4.614;2022-11-20T02:33:31;4.03;;;2.40;;
17494;SDS011;8864;51.970;4.614;2022-11-20T02:35:58;3.88;;;2.60;;
17494;SDS011;8864;51.970;4.614;2022-11-20T02:38:25;4.22;;;2.70;;
17494;SDS011;8864;51.970;4.614;2022-11-20T02:40:52;4.63;;;2.67;;
17494;SDS011;8864;51.970;4.614;2022-11-20T02:43:20;5.03;;;2.83;;
17494;SDS011;8864;51.970;4.614;2022-11-20T02:45:47;4.78;;;2.85;;
17494;SDS011;8864;51.970;4.614;2022-11-20T02:48:13;3.88;;;2.47;;
17494;SDS011;8864;51.970;4.614;2022-11-20T02:50:40;6.32;;;3.22;;
17494;SDS011;8864;51.970;4.614;2022-11-20T02:53:07;3.95;;;2.45;;
17494;SDS011;8864;51.970;4.614;2022-11-20T02:55:34;3.88;;;2.83;;
17494;SDS011;8864;51.970;4.614;2022-11-20T02:58:01;4.45;;;2.70;;
17494;SDS011;8864;51.970;4.614;2022-11-20T03:00:29;4.40;;;2.58;;
17494;SDS011;8864;51.970;4.614;2022-11-20T03:02:57;3.70;;;2.47;;
17494;SDS011;8864;51.970;4.614;2022-11-20T03:05:23;4.95;;;2.83;;
17494;SDS011;8864;51.970;4.614;2022-11-20T03:07:50;4.70;;;2.92;;
17494;SDS011;8864;51.970;4.614;2022-11-20T03:10:17;3.28;;;2.60;;
17494;SDS011;8864;51.970;4.614;2022-11-20T03:12:44;4.20;;;2.65;;
17494;SDS011;8864;51.970;4.614;2022-11-20T03:15:11;4.78;;;2.88;;
17494;SDS011;8864;51.970;4.614;2022-11-20T03:17:39;4.63;;;3.00;;
17494;SDS011;8864;51.970;4.614;2022-11-20T03:20:06;4.35;;;2.90;;
17494;SDS011;8864;51.970;4.614;2022-11-20T03:22:34;5.13;;;2.90;;
17494;SDS011;8864;51.970;4.614;2022-11-20T03:25:01;7.93;;;2.80;;
17494;SDS011;8864;51.970;4.614;2022-11-20T03:27:31;4.18;;;2.83;;
17494;SDS011;8864;51.970;4.614;2022-11-20T03:29:59;5.95;;;3.22;;
17494;SDS011;8864;51.970;4.614;2022-11-20T03:32:26;5.85;;;2.88;;
17494;SDS011;8864;51.970;4.614;2022-11-20T03:34:54;4.93;;;3.13;;
17494;SDS011;8864;51.970;4.614;2022-11-20T03:37:21;5.47;;;3.03;;
17494;SDS011;8864;51.970;4.614;2022-11-20T03:39:47;4.63;;;3.17;;
17494;SDS011;8864;51.970;4.614;2022-11-20T03:42:14;8.35;;;3.10;;
17494;SDS011;8864;51.970;4.614;2022-11-20T03:44:55;5.18;;;2.97;;
17494;SDS011;8864;51.970;4.614;2022-11-20T03:47:22;5.47;;;3.03;;
17494;SDS011;8864;51.970;4.614;2022-11-20T03:49:49;5.15;;;2.90;;
17494;SDS011;8864;51.970;4.614;2022-11-20T03:52:17;4.15;;;2.70;;
17494;SDS011;8864;51.970;4.614;2022-11-20T03:54:44;5.10;;;3.00;;
17494;SDS011;8864;51.970;4.614;2022-11-20T03:57:11;5.15;;;2.90;;
17494;SDS011;8864;51.970;4.614;2022-11-20T03:59:37;4.20;;;2.95;;
17494;SDS011;8864;51.970;4.614;2022-11-20T04:02:04;5.50;;;3.28;;
17494;SDS011;8864;51.970;4.614;2022-11-20T04:04:31;4.88;;;2.95;;
17494;SDS011;8864;51.970;4.614;2022-11-20T04:06:58;4.50;;;2.72;;
17494;SDS011;8864;51.970;4.614;2022-11-20T04:09:26;5.90;;;2.65;;
17494;SDS011;8864;51.970;4.614;2022-11-20T04:11:53;4.97;;;3.28;;
17494;SDS011;8864;51.970;4.614;2022-11-20T04:14:20;5.85;;;3.20;;
17494;SDS011;8864;51.970;4.614;2022-11-20T04:16:46;5.72;;;3.05;;
17494;SDS011;8864;51.970;4.614;2022-11-20T04:19:14;6.95;;;3.00;;
17494;SDS011;8864;51.970;4.614;2022-11-20T04:21:42;4.78;;;3.00;;
17494;SDS011;8864;51.970;4.614;2022-11-20T04:24:10;6.35;;;3.17;;
17494;SDS011;8864;51.970;4.614;2022-11-20T04:26:39;5.32;;;3.20;;
17494;SDS011;8864;51.970;4.614;2022-11-20T04:29:05;6.03;;;3.22;;
17494;SDS011;8864;51.970;4.614;2022-11-20T04:31:33;6.15;;;3.17;;
17494;SDS011;8864;51.970;4.614;2022-11-20T04:34:01;4.47;;;2.88;;
17494;SDS011;8864;51.970;4.614;2022-11-20T04:36:28;5.13;;;3.10;;
17494;SDS011;8864;51.970;4.614;2022-11-20T04:38:56;5.07;;;3.33;;
17494;SDS011;8864;51.970;4.614;2022-11-20T04:41:25;4.45;;;2.80;;
17494;SDS011;8864;51.970;4.614;2022-11-20T04:43:56;5.60;;;3.08;;
17494;SDS011;8864;51.970;4.614;2022-11-20T04:46:28;5.38;;;3.15;;
17494;SDS011;8864;51.970;4.614;2022-11-20T04:48:56;4.55;;;2.90;;
17494;SDS011;8864;51.970;4.614;2022-11-20T04:51:25;5.55;;;2.97;;
17494;SDS011;8864;51.970;4.614;2022-11-20T04:53:51;4.97;;;3.10;;
17494;SDS011;8864;51.970;4.614;2022-11-20T04:56:19;5.80;;;2.83;;
17494;SDS011;8864;51.970;4.614;2022-11-20T04:58:46;6.15;;;3.25;;
17494;SDS011;8864;51.970;4.614;2022-11-20T05:01:14;3.78;;;2.75;;
17494;SDS011;8864;51.970;4.614;2022-11-20T05:03:43;4.07;;;2.70;;
17494;SDS011;8864;51.970;4.614;2022-11-20T05:06:11;4.88;;;2.85;;
17494;SDS011;8864;51.970;4.614;2022-11-20T05:08:39;4.22;;;2.75;;
17494;SDS011;8864;51.970;4.614;2022-11-20T05:11:07;4.65;;;2.95;;
17494;SDS011;8864;51.970;4.614;2022-11-20T05:13:35;3.45;;;2.72;;
17494;SDS011;8864;51.970;4.614;2022-11-20T05:16:03;4.50;;;2.90;;
17494;SDS011;8864;51.970;4.614;2022-11-20T05:18:32;6.50;;;2.78;;
17494;SDS011;8864;51.970;4.614;2022-11-20T05:20:59;4.85;;;2.70;;
17494;SDS011;8864;51.970;4.614;2022-11-20T05:23:26;5.13;;;2.92;;
17494;SDS011;8864;51.970;4.614;2022-11-20T05:25:54;3.92;;;2.50;;
17494;SDS011;8864;51.970;4.614;2022-11-20T05:28:21;4.38;;;2.58;;
17494;SDS011;8864;51.970;4.614;2022-11-20T05:30:48;4.00;;;2.72;;
17494;SDS011;8864;51.970;4.614;2022-11-20T05:33:15;4.63;;;2.90;;
17494;SDS011;8864;51.970;4.614;2022-11-20T05:35:44;4.97;;;2.70;;
17494;SDS011;8864;51.970;4.614;2022-11-20T05:38:10;4.70;;;2.85;;
17494;SDS011;8864;51.970;4.614;2022-11-20T05:40:37;5.07;;;3.03;;
17494;SDS011;8864;51.970;4.614;2022-11-20T05:43:04;4.68;;;2.80;;
17494;SDS011;8864;51.970;4.614;2022-11-20T05:45:31;5.20;;;2.63;;
17494;SDS011;8864;51.970;4.614;2022-11-20T05:47:58;4.25;;;2.70;;
17494;SDS011;8864;51.970;4.614;2022-11-20T05:50:26;4.43;;;2.67;;
17494;SDS011;8864;51.970;4.614;2022-11-20T05:52:54;3.92;;;2.63;;
17494;SDS011;8864;51.970;4.614;2022-11-20T05:55:20;5.05;;;2.70;;
17494;SDS011;8864;51.970;4.614;2022-11-20T05:57:47;3.75;;;2.35;;
17494;SDS011;8864;51.970;4.614;2022-11-20T06:00:14;4.07;;;2.42;;
17494;SDS011;8864;51.970;4.614;2022-11-20T06:02:41;3.97;;;2.40;;
17494;SDS011;8864;51.970;4.614;2022-11-20T06:05:08;3.90;;;2.47;;
17494;SDS011;8864;51.970;4.614;2022-11-20T06:07:35;2.80;;;2.15;;
17494;SDS011;8864;51.970;4.614;2022-11-20T06:10:03;4.85;;;2.72;;
17494;SDS011;8864;51.970;4.614;2022-11-20T06:12:31;4.53;;;2.80;;
17494;SDS011;8864;51.970;4.614;2022-11-20T06:14:58;4.07;;;2.60;;
17494;SDS011;8864;51.970;4.614;2022-11-20T06:17:25;5.22;;;2.85;;
17494;SDS011;8864;51.970;4.614;2022-11-20T06:19:52;4.22;;;2.47;;
17494;SDS011;8864;51.970;4.614;2022-11-20T06:22:19;4.18;;;2.60;;
17494;SDS011;8864;51.970;4.614;2022-11-20T06:24:46;3.88;;;2.55;;
17494;SDS011;8864;51.970;4.614;2022-11-20T06:27:15;3.80;;;2.40;;
17494;SDS011;8864;51.970;4.614;2022-11-20T06:29:42;3.67;;;2.30;;
17494;SDS011;8864;51.970;4.614;2022-11-20T06:32:09;4.38;;;2.60;;
17494;SDS011;8864;51.970;4.614;2022-11-20T06:34:35;6.53;;;2.92;;
17494;SDS011;8864;51.970;4.614;2022-11-20T06:37:02;4.63;;;2.85;;
17494;SDS011;8864;51.970;4.614;2022-11-20T06:39:29;4.60;;;2.65;;
17494;SDS011;8864;51.970;4.614;2022-11-20T06:41:56;4.65;;;2.22;;
17494;SDS011;8864;51.970;4.614;2022-11-20T06:44:24;4.38;;;2.70;;
17494;SDS011;8864;51.970;4.614;2022-11-20T06:46:51;3.97;;;2.33;;
17494;SDS011;8864;51.970;4.614;2022-11-20T06:49:17;4.25;;;2.17;;
17494;SDS011;8864;51.970;4.614;2022-11-20T06:51:44;6.40;;;2.38;;
17494;SDS011;8864;51.970;4.614;2022-11-20T06:54:11;7.97;;;2.83;;
17494;SDS011;8864;51.970;4.614;2022-11-20T06:56:38;10.60;;;2.42;;
17494;SDS011;8864;51.970;4.614;2022-11-20T06:59:04;3.45;;;2.13;;
17494;SDS011;8864;51.970;4.614;2022-11-20T07:01:33;4.20;;;2.60;;
17494;SDS011;8864;51.970;4.614;2022-11-20T07:04:00;6.25;;;2.80;;
17494;SDS011;8864;51.970;4.614;2022-11-20T07:06:28;5.03;;;2.60;;
17494;SDS011;8864;51.970;4.614;2022-11-20T07:08:54;5.43;;;2.80;;
17494;SDS011;8864;51.970;4.614;2022-11-20T07:11:21;5.45;;;2.50;;
17494;SDS011;8864;51.970;4.614;2022-11-20T07:13:48;3.55;;;2.35;;
17494;SDS011;8864;51.970;4.614;2022-11-20T07:16:15;4.53;;;2.90;;
17494;SDS011;8864;51.970;4.614;2022-11-20T07:18:44;4.82;;;2.70;;
17494;SDS011;8864;51.970;4.614;2022-11-20T07:21:10;4.75;;;2.85;;
17494;SDS011;8864;51.970;4.614;2022-11-20T07:23:37;5.60;;;2.65;;
17494;SDS011;8864;51.970;4.614;2022-11-20T07:26:04;6.60;;;2.53;;
17494;SDS011;8864;51.970;4.614;2022-11-20T07:28:32;5.57;;;3.08;;
17494;SDS011;8864;51.970;4.614;2022-11-20T07:30:59;4.28;;;2.80;;
17494;SDS011;8864;51.970;4.614;2022-11-20T07:33:27;4.28;;;3.00;;
17494;SDS011;8864;51.970;4.614;2022-11-20T07:35:55;5.25;;;2.75;;
17494;SDS011;8864;51.970;4.614;2022-11-20T07:38:24;5.18;;;2.80;;
17494;SDS011;8864;51.970;4.614;2022-11-20T07:40:53;6.65;;;2.88;;
17494;SDS011;8864;51.970;4.614;2022-11-20T07:43:20;5.00;;;3.20;;
17494;SDS011;8864;51.970;4.614;2022-11-20T07:45:47;5.82;;;3.22;;
17494;SDS011;8864;51.970;4.614;2022-11-20T07:48:14;6.03;;;3.28;;
17494;SDS011;8864;51.970;4.614;2022-11-20T07:50:41;6.53;;;3.35;;
17494;SDS011;8864;51.970;4.614;2022-11-20T07:53:09;6.68;;;3.13;;
17494;SDS011;8864;51.970;4.614;2022-11-20T07:55:37;5.75;;;3.15;;
17494;SDS011;8864;51.970;4.614;2022-11-20T07:58:04;5.25;;;3.40;;
17494;SDS011;8864;51.970;4.614;2022-11-20T08:00:31;5.95;;;3.28;;
17494;SDS011;8864;51.970;4.614;2022-11-20T08:02:58;7.75;;;3.55;;
17494;SDS011;8864;51.970;4.614;2022-11-20T08:05:24;5.35;;;3.63;;
17494;SDS011;8864;51.970;4.614;2022-11-20T08:07:51;7.72;;;3.78;;
17494;SDS011;8864;51.970;4.614;2022-11-20T08:10:19;5.55;;;3.40;;
17494;SDS011;8864;51.970;4.614;2022-11-20T08:12:46;5.55;;;3.40;;
17494;SDS011;8864;51.970;4.614;2022-11-20T08:15:31;5.93;;;3.42;;
17494;SDS011;8864;51.970;4.614;2022-11-20T08:17:59;5.93;;;3.60;;
17494;SDS011;8864;51.970;4.614;2022-11-20T08:20:27;5.65;;;3.50;;
17494;SDS011;8864;51.970;4.614;2022-11-20T08:22:57;5.60;;;3.40;;
17494;SDS011;8864;51.970;4.614;2022-11-20T08:25:26;5.65;;;3.50;;
17494;SDS011;8864;51.970;4.614;2022-11-20T08:27:53;6.28;;;3.38;;
17494;SDS011;8864;51.970;4.614;2022-11-20T08:30:19;4.45;;;3.20;;
17494;SDS011;8864;51.970;4.614;2022-11-20T08:32:46;5.72;;;3.55;;
17494;SDS011;8864;51.970;4.614;2022-11-20T08:35:13;5.30;;;3.33;;
17494;SDS011;8864;51.970;4.614;2022-11-20T08:37:40;9.50;;;3.42;;
17494;SDS011;8864;51.970;4.614;2022-11-20T08:40:08;5.05;;;3.20;;
17494;SDS011;8864;51.970;4.614;2022-11-20T08:42:37;13.68;;;3.63;;
17494;SDS011;8864;51.970;4.614;2022-11-20T08:45:12;5.55;;;3.22;;
17494;SDS011;8864;51.970;4.614;2022-11-20T08:47:39;6.25;;;3.38;;
17494;SDS011;8864;51.970;4.614;2022-11-20T08:50:06;6.45;;;3.40;;
17494;SDS011;8864;51.970;4.614;2022-11-20T08:52:33;6.93;;;3.78;;
17494;SDS011;8864;51.970;4.614;2022-11-20T08:55:00;6.47;;;3.22;;
17494;SDS011;8864;51.970;4.614;2022-11-20T08:57:27;6.32;;;3.28;;
17494;SDS011;8864;51.970;4.614;2022-11-20T08:59:55;7.65;;;3.60;;
17494;SDS011;8864;51.970;4.614;2022-11-20T09:02:22;10.10;;;4.20;;
17494;SDS011;8864;51.970;4.614;2022-11-20T09:04:48;10.63;;;4.22;;
17494;SDS011;8864;51.970;4.614;2022-11-20T09:07:15;8.00;;;4.90;;
17494;SDS011;8864;51.970;4.614;2022-11-20T09:09:42;9.48;;;3.88;;
17494;SDS011;8864;51.970;4.614;2022-11-20T09:12:09;11.48;;;4.25;;
17494;SDS011;8864;51.970;4.614;2022-11-20T09:14:35;13.93;;;4.30;;
17494;SDS011;8864;51.970;4.614;2022-11-20T09:17:04;11.77;;;4.50;;
17494;SDS011;8864;51.970;4.614;2022-11-20T09:19:32;8.98;;;4.00;;
17494;SDS011;8864;51.970;4.614;2022-11-20T09:21:59;8.15;;;3.90;;
17494;SDS011;8864;51.970;4.614;2022-11-20T09:24:26;9.10;;;4.35;;
17494;SDS011;8864;51.970;4.614;2022-11-20T09:26:53;12.32;;;4.50;;
17494;SDS011;8864;51.970;4.614;2022-11-20T09:29:19;8.32;;;3.88;;
17494;SDS011;8864;51.970;4.614;2022-11-20T09:31:46;9.30;;;4.30;;
17494;SDS011;8864;51.970;4.614;2022-11-20T09:34:14;9.18;;;4.35;;
17494;SDS011;8864;51.970;4.614;2022-11-20T09:36:42;10.88;;;4.10;;
17494;SDS011;8864;51.970;4.614;2022-11-20T09:39:08;12.65;;;4.72;;
17494;SDS011;8864;51.970;4.614;2022-11-20T09:41:43;10.00;;;4.18;;
17494;SDS011;8864;51.970;4.614;2022-11-20T09:44:27;7.15;;;3.88;;
17494;SDS011;8864;51.970;4.614;2022-11-20T09:47:11;8.80;;;4.35;;
17494;SDS011;8864;51.970;4.614;2022-11-20T09:49:50;10.30;;;4.30;;
17494;SDS011;8864;51.970;4.614;2022-11-20T09:52:31;10.40;;;4.30;;
17494;SDS011;8864;51.970;4.614;2022-11-20T09:55:06;6.88;;;3.72;;
17494;SDS011;8864;51.970;4.614;2022-11-20T09:57:37;10.05;;;4.00;;
17494;SDS011;8864;51.970;4.614;2022-11-20T10:00:09;7.32;;;3.95;;
17494;SDS011;8864;51.970;4.614;2022-11-20T10:02:37;8.55;;;3.97;;
17494;SDS011;8864;51.970;4.614;2022-11-20T10:05:15;7.32;;;3.70;;
17494;SDS011;8864;51.970;4.614;2022-11-20T10:07:47;8.45;;;3.72;;
17494;SDS011;8864;51.970;4.614;2022-11-20T10:10:22;9.07;;;3.60;;
17494;SDS011;8864;51.970;4.614;2022-11-20T10:13:00;7.80;;;3.70;;
17494;SDS011;8864;51.970;4.614;2022-11-20T10:15:38;9.45;;;3.97;;
17494;SDS011;8864;51.970;4.614;2022-11-20T10:18:21;7.15;;;3.72;;
17494;SDS011;8864;51.970;4.614;2022-11-20T10:21:00;8.15;;;3.85;;
17494;SDS011;8864;51.970;4.614;2022-11-20T10:23:45;7.35;;;3.38;;
17494;SDS011;8864;51.970;4.614;2022-11-20T10:26:26;9.90;;;3.88;;
17494;SDS011;8864;51.970;4.614;2022-11-20T10:29:01;5.93;;;3.50;;
17494;SDS011;8864;51.970;4.614;2022-11-20T10:31:36;5.60;;;3.30;;
17494;SDS011;8864;51.970;4.614;2022-11-20T10:34:06;7.22;;;3.10;;
17494;SDS011;8864;51.970;4.614;2022-11-20T10:36:44;8.55;;;3.05;;
17494;SDS011;8864;51.970;4.614;2022-11-20T10:39:16;7.10;;;3.20;;
17494;SDS011;8864;51.970;4.614;2022-11-20T10:41:49;5.63;;;3.00;;
17494;SDS011;8864;51.970;4.614;2022-11-20T10:44:19;5.90;;;3.40;;
17494;SDS011;8864;51.970;4.614;2022-11-20T10:47:01;8.05;;;3.42;;
17494;SDS011;8864;51.970;4.614;2022-11-20T10:49:30;6.82;;;3.17;;
17494;SDS011;8864;51.970;4.614;2022-11-20T10:52:02;7.67;;;4.10;;
17494;SDS011;8864;51.970;4.614;2022-11-20T10:54:36;7.93;;;3.65;;
17494;SDS011;8864;51.970;4.614;2022-11-20T10:57:13;5.00;;;2.90;;
17494;SDS011;8864;51.970;4.614;2022-11-20T11:02:33;8.55;;;3.05;;
17494;SDS011;8864;51.970;4.614;2022-11-20T11:05:08;5.15;;;2.85;;
17494;SDS011;8864;51.970;4.614;2022-11-20T11:07:42;5.65;;;3.05;;
17494;SDS011;8864;51.970;4.614;2022-11-20T11:10:16;5.65;;;2.95;;
17494;SDS011;8864;51.970;4.614;2022-11-20T11:12:44;6.90;;;3.10;;
17494;SDS011;8864;51.970;4.614;2022-11-20T11:15:13;6.97;;;3.00;;
17494;SDS011;8864;51.970;4.614;2022-11-20T11:17:50;3.45;;;2.50;;
17494;SDS011;8864;51.970;4.614;2022-11-20T11:20:17;4.57;;;2.33;;
17494;SDS011;8864;51.970;4.614;2022-11-20T11:22:48;4.75;;;2.53;;
17494;SDS011;8864;51.970;4.614;2022-11-20T11:25:20;4.70;;;2.40;;
17494;SDS011;8864;51.970;4.614;2022-11-20T11:27:50;8.13;;;2.70;;
17494;SDS011;8864;51.970;4.614;2022-11-20T11:30:18;5.88;;;2.78;;
17494;SDS011;8864;51.970;4.614;2022-11-20T11:32:46;5.22;;;2.90;;
17494;SDS011;8864;51.970;4.614;2022-11-20T11:35:21;4.60;;;2.58;;
17494;SDS011;8864;51.970;4.614;2022-11-20T11:37:51;4.45;;;2.58;;
17494;SDS011;8864;51.970;4.614;2022-11-20T11:40:21;3.97;;;2.30;;
17494;SDS011;8864;51.970;4.614;2022-11-20T11:42:50;5.30;;;2.40;;
17494;SDS011;8864;51.970;4.614;2022-11-20T11:45:20;4.43;;;2.40;;
17494;SDS011;8864;51.970;4.614;2022-11-20T11:47:47;4.43;;;2.47;;
17494;SDS011;8864;51.970;4.614;2022-11-20T11:50:17;5.18;;;2.65;;
17494;SDS011;8864;51.970;4.614;2022-11-20T11:52:48;2.80;;;2.20;;
17494;SDS011;8864;51.970;4.614;2022-11-20T11:55:25;3.47;;;2.35;;
17494;SDS011;8864;51.970;4.614;2022-11-20T11:57:59;5.00;;;2.60;;
17494;SDS011;8864;51.970;4.614;2022-11-20T12:00:35;5.35;;;2.53;;
17494;SDS011;8864;51.970;4.614;2022-11-20T12:03:07;3.78;;;2.42;;
17494;SDS011;8864;51.970;4.614;2022-11-20T12:05:40;3.42;;;2.25;;
17494;SDS011;8864;51.970;4.614;2022-11-20T12:08:13;3.55;;;2.30;;
17494;SDS011;8864;51.970;4.614;2022-11-20T12:10:45;3.28;;;2.20;;
17494;SDS011;8864;51.970;4.614;2022-11-20T12:13:26;3.67;;;2.22;;
17494;SDS011;8864;51.970;4.614;2022-11-20T12:16:13;5.75;;;2.50;;
17494;SDS011;8864;51.970;4.614;2022-11-20T12:18:41;4.80;;;2.60;;
17494;SDS011;8864;51.970;4.614;2022-11-20T12:21:16;4.05;;;2.28;;
17494;SDS011;8864;51.970;4.614;2022-11-20T12:26:41;3.10;;;2.15;;
17494;SDS011;8864;51.970;4.614;2022-11-20T12:29:18;3.65;;;2.60;;
17494;SDS011;8864;51.970;4.614;2022-11-20T12:32:03;4.25;;;2.42;;
17494;SDS011;8864;51.970;4.614;2022-11-20T12:34:52;3.97;;;2.22;;
17494;SDS011;8864;51.970;4.614;2022-11-20T12:37:30;3.55;;;2.30;;
17494;SDS011;8864;51.970;4.614;2022-11-20T12:40:12;3.47;;;2.42;;
17494;SDS011;8864;51.970;4.614;2022-11-20T12:42:53;4.72;;;2.22;;
17494;SDS011;8864;51.970;4.614;2022-11-20T12:45:51;4.50;;;2.30;;
17494;SDS011;8864;51.970;4.614;2022-11-20T12:51:23;3.75;;;2.05;;
17494;SDS011;8864;51.970;4.614;2022-11-20T12:54:08;3.95;;;2.60;;
17494;SDS011;8864;51.970;4.614;2022-11-20T12:56:50;5.80;;;2.30;;
17494;SDS011;8864;51.970;4.614;2022-11-20T12:59:27;5.60;;;2.55;;
17494;SDS011;8864;51.970;4.614;2022-11-20T13:02:09;6.30;;;2.70;;
17494;SDS011;8864;51.970;4.614;2022-11-20T13:04:50;8.75;;;2.80;;
17494;SDS011;8864;51.970;4.614;2022-11-20T13:07:30;6.88;;;3.08;;
17494;SDS011;8864;51.970;4.614;2022-11-20T13:09:59;5.05;;;3.10;;
17494;SDS011;8864;51.970;4.614;2022-11-20T13:12:29;5.97;;;3.30;;
17494;SDS011;8864;51.970;4.614;2022-11-20T13:15:01;5.75;;;3.17;;
17494;SDS011;8864;51.970;4.614;2022-11-20T13:17:37;8.13;;;3.80;;
17494;SDS011;8864;51.970;4.614;2022-11-20T13:20:12;29.15;;;5.18;;
17494;SDS011;8864;51.970;4.614;2022-11-20T13:22:43;7.03;;;3.50;;
17494;SDS011;8864;51.970;4.614;2022-11-20T13:25:21;6.53;;;3.45;;
17494;SDS011;8864;51.970;4.614;2022-11-20T13:27:51;7.65;;;3.65;;
17494;SDS011;8864;51.970;4.614;2022-11-20T13:30:19;9.13;;;3.95;;
17494;SDS011;8864;51.970;4.614;2022-11-20T13:32:53;8.50;;;3.45;;
17494;SDS011;8864;51.970;4.614;2022-11-20T13:35:26;8.30;;;3.42;;
17494;SDS011;8864;51.970;4.614;2022-11-20T13:38:08;6.15;;;3.67;;
17494;SDS011;8864;51.970;4.614;2022-11-20T13:40:37;8.52;;;4.05;;
17494;SDS011;8864;51.970;4.614;2022-11-20T13:43:18;7.43;;;4.05;;
17494;SDS011;8864;51.970;4.614;2022-11-20T13:45:58;8.95;;;4.13;;
17494;SDS011;8864;51.970;4.614;2022-11-20T13:48:26;10.73;;;4.15;;
17494;SDS011;8864;51.970;4.614;2022-11-20T13:51:01;7.75;;;4.05;;
17494;SDS011;8864;51.970;4.614;2022-11-20T13:53:41;8.35;;;4.00;;
17494;SDS011;8864;51.970;4.614;2022-11-20T13:56:23;7.72;;;4.32;;
17494;SDS011;8864;51.970;4.614;2022-11-20T13:59:02;7.93;;;3.90;;
17494;SDS011;8864;51.970;4.614;2022-11-20T14:01:34;7.40;;;3.70;;
17494;SDS011;8864;51.970;4.614;2022-11-20T14:04:05;6.90;;;4.07;;
17494;SDS011;8864;51.970;4.614;2022-11-20T14:06:34;9.45;;;4.20;;
17494;SDS011;8864;51.970;4.614;2022-11-20T14:09:09;9.07;;;4.40;;
17494;SDS011;8864;51.970;4.614;2022-11-20T14:11:45;7.70;;;3.88;;
17494;SDS011;8864;51.970;4.614;2022-11-20T14:14:15;9.23;;;4.07;;
17494;SDS011;8864;51.970;4.614;2022-11-20T14:16:44;9.18;;;4.65;;
17494;SDS011;8864;51.970;4.614;2022-11-20T14:19:23;7.10;;;3.75;;
17494;SDS011;8864;51.970;4.614;2022-11-20T14:21:54;6.28;;;3.90;;
17494;SDS011;8864;51.970;4.614;2022-11-20T14:24:32;7.85;;;3.92;;
17494;SDS011;8864;51.970;4.614;2022-11-20T14:26:59;7.82;;;4.00;;
17494;SDS011;8864;51.970;4.614;2022-11-20T14:29:28;8.65;;;3.95;;
17494;SDS011;8864;51.970;4.614;2022-11-20T14:31:59;9.13;;;4.47;;
17494;SDS011;8864;51.970;4.614;2022-11-20T14:34:29;7.72;;;3.72;;
17494;SDS011;8864;51.970;4.614;2022-11-20T14:36:59;9.18;;;3.55;;
17494;SDS011;8864;51.970;4.614;2022-11-20T14:39:29;8.15;;;4.10;;
17494;SDS011;8864;51.970;4.614;2022-11-20T14:41:59;8.20;;;3.95;;
17494;SDS011;8864;51.970;4.614;2022-11-20T14:44:29;10.90;;;4.32;;
17494;SDS011;8864;51.970;4.614;2022-11-20T14:46:59;7.82;;;3.83;;
17494;SDS011;8864;51.970;4.614;2022-11-20T14:49:27;7.57;;;4.13;;
17494;SDS011;8864;51.970;4.614;2022-11-20T14:52:00;6.38;;;4.05;;
17494;SDS011;8864;51.970;4.614;2022-11-20T14:54:29;6.88;;;3.80;;
17494;SDS011;8864;51.970;4.614;2022-11-20T14:56:57;8.60;;;4.25;;
17494;SDS011;8864;51.970;4.614;2022-11-20T14:59:25;7.07;;;3.70;;
17494;SDS011;8864;51.970;4.614;2022-11-20T15:01:55;7.00;;;3.88;;
17494;SDS011;8864;51.970;4.614;2022-11-20T15:04:23;7.07;;;3.72;;
17494;SDS011;8864;51.970;4.614;2022-11-20T15:06:51;6.70;;;3.88;;
17494;SDS011;8864;51.970;4.614;2022-11-20T15:09:19;6.90;;;4.05;;
17494;SDS011;8864;51.970;4.614;2022-11-20T15:11:52;7.57;;;4.07;;
17494;SDS011;8864;51.970;4.614;2022-11-20T15:14:21;6.93;;;3.95;;
17494;SDS011;8864;51.970;4.614;2022-11-20T15:16:49;7.38;;;4.00;;
17494;SDS011;8864;51.970;4.614;2022-11-20T15:19:17;7.13;;;3.85;;
17494;SDS011;8864;51.970;4.614;2022-11-20T15:21:46;7.05;;;3.83;;
17494;SDS011;8864;51.970;4.614;2022-11-20T15:24:13;8.10;;;4.43;;
17494;SDS011;8864;51.970;4.614;2022-11-20T15:26:40;5.97;;;4.00;;